Historyczne dane pomiarowe

Dodano dane terminowe – wersja testowa.

Dane z okresu 1951-2019

Wersja bazy: 1.34 [2019-03-16, lista zmian], aktualizacja planowana na 2019-04-15

Dane meteo z obszaru Polski uzyskane na podstawie danych udostępnionych przez Instytut Meteorologii i Gospodarki Wodnej – Państwowy Instytut Badawczy.

 

Wybierz Datę:    

       

TemperaturaWilgotnośćWiatrCiśnienieOpadyŚniegCzas trwania zjawisk
 Stacja t tx tn tng RH VA  wxwx mslp ppp RRR   cm mm wxwxwxwxwxwxwx
1983-08-14 15.4 20.8 11.8 8.3-- 2.7 2.7---- 0.0------------
1983-08-13 15.1 19.5 12.7 11.5-- 1.0 2.7---- 0.0------------
1983-08-12 19.0 24.4 14.4 10.5-- 2.0 3.3---- 9.8------------
1983-08-11 21.2 28.9 13.4 10.8-- 0.0 2.0---- 0.0------------
1983-08-10 21.7 27.9 15.0 12.5-- 0.0 1.3---- 0.0------------
1983-08-09 21.0 28.4 14.5 11.5-- 0.7 0.7---- 0.0------------
1983-08-08 19.7 26.0 9.5 10.8-- 5.0 1.7---- 0.2------------
1983-08-07 17.2 24.0 10.7 8.3-- 7.7 0.3---- 0.0------------
1983-08-06 16.1 21.2 10.2 7.5-- 3.7 2.3---- 0.0------------
1983-08-05 14.3 17.3 11.7 11.8-- 7.0 2.3---- 0.0------------
1983-08-04 12.6 13.0 11.0 10.7-- 8.0 3.0---- 20.6------------
1983-08-03 15.3 23.6 11.4 11.2-- 8.0 5.7---- 33.0------------
1983-08-02 22.5 30.0 17.4 17.5-- 6.7 2.0---- 1.2------------
1983-08-01 25.7 34.1 15.0 11.7-- 4.0 5.0---- 0.3------------
1983-07-31 19.3 28.0 9.3 5.3-- 0.0 1.0---- 0.0------------
1983-07-30 18.3 21.4 15.9 14.5-- 3.0 4.7---- 0.0------------
1983-07-29 17.8 23.1 15.4 12.3-- 3.3 2.3---- 2.0------------
1983-07-28 22.1 28.7 18.3 17.0-- 0.3 3.0---- 0.0------------
1983-07-27 25.1 35.1 13.0 10.0-- 2.7 1.7---- 0.0------------
1983-07-26 21.7 31.0 11.2 7.0-- 0.0 1.0---- 0.0------------
1983-07-25 19.1 26.5 8.9 5.0-- 0.0 1.3---- 0.0------------
1983-07-24 18.6 25.1 11.5 9.0-- 2.7 1.7---- 0.0------------
1983-07-23 19.9 26.0 14.0 12.0-- 0.0 2.3---- 0.0------------
1983-07-22 15.3 18.4 13.4 11.5-- 8.0 3.0---- 0.0------------
1983-07-21 14.7 19.0 9.8 8.0-- 1.0 3.0---- 0.0------------
1983-07-20 14.7 21.4 11.5 11.4-- 8.0 3.3---- 0.0------------
1983-07-19 20.7 28.4 18.4 13.2-- 7.0 3.7---- 1.1------------
1983-07-18 26.2 34.3 16.4 11.0-- 0.7 2.0---- 7.1------------
1983-07-17 21.4 27.5 13.4 10.5-- 0.0 0.3---- 0.0------------
1983-07-16 22.9 27.1 18.8 15.0-- 5.0 2.7---- 8.8------------
1983-07-15 21.3 26.1 14.5 12.0-- 0.3 1.7---- 0.0------------
1983-07-14 21.0 26.7 16.3 14.8-- 3.7 3.0---- 0.3------------
1983-07-13 20.4 25.8 17.6 15.0-- 5.0 3.3---- 0.0------------
1983-07-12 21.5 30.5 16.1 11.0-- 3.7 2.7---- 23.0------------
1983-07-11 24.2 31.0 15.1 10.2-- 2.7 1.0---- 0.0------------
1983-07-10 24.5 32.3 15.3 10.7-- 2.3 1.7---- 0.0------------
1983-07-09 23.1 31.4 11.1 7.6-- 0.0 2.3---- 0.0------------
1983-07-08 22.3 30.4 10.7 5.5-- 0.0 2.3---- 0.0------------
1983-07-07 24.1 31.0 16.3 13.8-- 0.0 3.7---- 0.0------------
1983-07-06 23.3 31.0 12.4 9.0-- 0.0 2.0---- 0.0------------
1983-07-05 20.0 27.2 9.5 5.5-- 0.0 1.0---- 0.0------------
1983-07-04 19.6 25.5 13.8 8.9-- 0.7 3.3---- 0.0------------
1983-07-03 18.9 24.0 10.8 6.9-- 2.3 0.7---- 0.0------------
1983-07-02 17.8 23.2 11.5 9.0-- 0.3 2.7---- 0.0------------
1983-07-01 19.2 24.7 15.9 13.4-- 6.3 3.3---- 0.0------------
1983-06-30 19.8 24.9 9.3 10.9-- 2.7 2.3---- 0.0------------
1983-06-29 14.7 19.5 9.3 7.0-- 3.7 2.7---- 0.0------------
1983-06-28 14.6 17.5 12.8 11.4-- 1.3 3.0---- 0.0------------
1983-06-27 17.2 24.0 14.5 13.6-- 7.3 1.3---- 2.4------------
1983-06-26 19.2 26.0 11.5 6.5-- 0.3 2.3---- 6.3------------
1983-06-25 21.1 27.9 11.4 7.6-- 1.7 2.3---- 0.0------------
1983-06-24 22.3 29.6 9.4 4.7-- 0.0 0.3---- 0.0------------
1983-06-23 17.5 24.8 5.5 2.1-- 0.0 2.0---- 0.0------------
1983-06-22 16.2 22.5 8.0 6.0-- 0.0 3.0---- 0.0------------
1983-06-21 20.1 28.4 11.0 5.2-- 0.0 3.0---- 0.0------------
1983-06-20 19.3 27.4 8.2 3.9-- 0.0 3.0---- 0.0------------
1983-06-19 18.0 25.0 9.0 9.0-- 0.0 3.7---- 0.0------------
1983-06-18 14.1 18.1 10.4 8.5-- 8.0 3.3---- 0.0------------
1983-06-17 12.9 16.0 10.3 9.6-- 1.3 3.7---- 0.2------------
1983-06-16 12.7 16.5 9.4 8.5-- 2.7 4.3---- 0.0------------
361.4 ms

 

Źródłem pochodzenia danych jest Instytut Meteorologii i Gospodarki Wodnej – Państwowy Instytut Badawczy. Dane Instytutu Meteorologii i Gospodarki Wodnej – Państwowego Instytutu Badawczego zostały przetworzone.

Dane źródłowe można odnaleźć na stronie https://dane.imgw.pl